sensor_id;sensor_type;location;lat;lon;timestamp;temperature;humidity
29731;DHT22;16639;51.488;0.152;2023-03-03T00:01:51;6.00;99.90
29731;DHT22;16639;51.488;0.152;2023-03-03T00:04:18;6.00;99.90
29731;DHT22;16639;51.488;0.152;2023-03-03T00:06:46;6.00;99.90
29731;DHT22;16639;51.488;0.152;2023-03-03T00:09:13;6.00;99.90
29731;DHT22;16639;51.488;0.152;2023-03-03T00:11:40;6.00;99.90
29731;DHT22;16639;51.488;0.152;2023-03-03T00:14:29;6.00;99.90
29731;DHT22;16639;51.488;0.152;2023-03-03T00:16:58;6.00;99.90
29731;DHT22;16639;51.488;0.152;2023-03-03T00:19:28;6.00;99.90
29731;DHT22;16639;51.488;0.152;2023-03-03T00:21:56;6.00;99.90
29731;DHT22;16639;51.488;0.152;2023-03-03T00:24:35;6.00;99.90
29731;DHT22;16639;51.488;0.152;2023-03-03T00:27:35;6.10;99.90
29731;DHT22;16639;51.488;0.152;2023-03-03T00:30:05;5.20;99.90
29731;DHT22;16639;51.488;0.152;2023-03-03T00:32:44;6.10;99.90
29731;DHT22;16639;51.488;0.152;2023-03-03T00:35:25;6.00;99.90
29731;DHT22;16639;51.488;0.152;2023-03-03T00:37:54;6.10;99.90
29731;DHT22;16639;51.488;0.152;2023-03-03T00:40:28;6.10;99.90
29731;DHT22;16639;51.488;0.152;2023-03-03T00:42:59;6.10;99.90
29731;DHT22;16639;51.488;0.152;2023-03-03T00:45:39;6.10;99.90
29731;DHT22;16639;51.488;0.152;2023-03-03T00:48:29;6.10;99.90
29731;DHT22;16639;51.488;0.152;2023-03-03T00:50:59;6.00;99.90
29731;DHT22;16639;51.488;0.152;2023-03-03T00:53:29;6.10;99.90
29731;DHT22;16639;51.488;0.152;2023-03-03T00:55:57;6.00;99.90
29731;DHT22;16639;51.488;0.152;2023-03-03T00:58:25;6.00;99.90
29731;DHT22;16639;51.488;0.152;2023-03-03T01:00:54;6.10;99.90
29731;DHT22;16639;51.488;0.152;2023-03-03T01:03:25;6.10;99.90
29731;DHT22;16639;51.488;0.152;2023-03-03T01:05:53;7.30;99.90
29731;DHT22;16639;51.488;0.152;2023-03-03T01:08:21;6.00;99.90
29731;DHT22;16639;51.488;0.152;2023-03-03T01:11:11;6.10;99.90
29731;DHT22;16639;51.488;0.152;2023-03-03T01:13:41;6.10;99.90
29731;DHT22;16639;51.488;0.152;2023-03-03T01:16:09;6.00;99.90
29731;DHT22;16639;51.488;0.152;2023-03-03T01:18:37;6.00;99.90
29731;DHT22;16639;51.488;0.152;2023-03-03T01:21:07;6.10;99.90
29731;DHT22;16639;51.488;0.152;2023-03-03T01:23:34;6.10;99.90
29731;DHT22;16639;51.488;0.152;2023-03-03T01:26:03;6.00;99.90
29731;DHT22;16639;51.488;0.152;2023-03-03T01:28:32;6.50;99.90
29731;DHT22;16639;51.488;0.152;2023-03-03T01:31:01;6.10;99.90
29731;DHT22;16639;51.488;0.152;2023-03-03T01:33:30;6.60;99.90
29731;DHT22;16639;51.488;0.152;2023-03-03T01:35:58;6.00;99.90
29731;DHT22;16639;51.488;0.152;2023-03-03T01:38:25;6.60;99.90
29731;DHT22;16639;51.488;0.152;2023-03-03T01:40:55;6.00;99.90
29731;DHT22;16639;51.488;0.152;2023-03-03T01:43:26;6.00;99.90
29731;DHT22;16639;51.488;0.152;2023-03-03T01:48:41;6.00;99.90
29731;DHT22;16639;51.488;0.152;2023-03-03T01:51:19;5.60;99.90
29731;DHT22;16639;51.488;0.152;2023-03-03T01:54:02;6.00;99.90
29731;DHT22;16639;51.488;0.152;2023-03-03T01:56:31;6.00;99.90
29731;DHT22;16639;51.488;0.152;2023-03-03T01:59:04;6.00;99.90
29731;DHT22;16639;51.488;0.152;2023-03-03T02:01:33;6.00;99.90
29731;DHT22;16639;51.488;0.152;2023-03-03T02:04:01;5.90;99.90
29731;DHT22;16639;51.488;0.152;2023-03-03T02:06:53;5.90;99.90
29731;DHT22;16639;51.488;0.152;2023-03-03T02:12:17;5.90;99.90
29731;DHT22;16639;51.488;0.152;2023-03-03T02:14:45;5.90;99.90
29731;DHT22;16639;51.488;0.152;2023-03-03T02:17:12;5.90;99.90
29731;DHT22;16639;51.488;0.152;2023-03-03T02:22:54;5.90;99.90
29731;DHT22;16639;51.488;0.152;2023-03-03T02:25:38;5.80;99.90
29731;DHT22;16639;51.488;0.152;2023-03-03T02:28:07;5.80;99.90
29731;DHT22;16639;51.488;0.152;2023-03-03T02:30:38;5.80;99.90
29731;DHT22;16639;51.488;0.152;2023-03-03T02:33:06;5.80;99.90
29731;DHT22;16639;51.488;0.152;2023-03-03T02:35:35;5.70;99.90
29731;DHT22;16639;51.488;0.152;2023-03-03T02:41:20;5.70;99.90
29731;DHT22;16639;51.488;0.152;2023-03-03T02:44:00;5.60;99.90
29731;DHT22;16639;51.488;0.152;2023-03-03T02:46:31;5.70;99.90
29731;DHT22;16639;51.488;0.152;2023-03-03T02:48:58;5.80;99.90
29731;DHT22;16639;51.488;0.152;2023-03-03T02:51:26;5.80;99.90
29731;DHT22;16639;51.488;0.152;2023-03-03T02:53:53;5.80;99.90
29731;DHT22;16639;51.488;0.152;2023-03-03T02:56:20;5.80;99.90
29731;DHT22;16639;51.488;0.152;2023-03-03T02:58:48;5.80;99.90
29731;DHT22;16639;51.488;0.152;2023-03-03T03:01:16;5.70;99.90
29731;DHT22;16639;51.488;0.152;2023-03-03T03:03:43;5.70;99.90
29731;DHT22;16639;51.488;0.152;2023-03-03T03:06:10;5.70;99.90
29731;DHT22;16639;51.488;0.152;2023-03-03T03:08:38;5.80;99.90
29731;DHT22;16639;51.488;0.152;2023-03-03T03:11:05;5.80;99.90
29731;DHT22;16639;51.488;0.152;2023-03-03T03:13:34;5.80;99.90
29731;DHT22;16639;51.488;0.152;2023-03-03T03:16:01;5.80;99.90
29731;DHT22;16639;51.488;0.152;2023-03-03T03:18:28;5.80;99.90
29731;DHT22;16639;51.488;0.152;2023-03-03T03:20:56;5.80;99.90
29731;DHT22;16639;51.488;0.152;2023-03-03T03:23:23;5.90;99.90
29731;DHT22;16639;51.488;0.152;2023-03-03T03:25:50;5.80;99.90
29731;DHT22;16639;51.488;0.152;2023-03-03T03:28:18;5.80;99.90
29731;DHT22;16639;51.488;0.152;2023-03-03T03:30:45;5.80;99.90
29731;DHT22;16639;51.488;0.152;2023-03-03T03:33:13;5.80;99.90
29731;DHT22;16639;51.488;0.152;2023-03-03T03:35:40;5.80;99.90
29731;DHT22;16639;51.488;0.152;2023-03-03T03:38:12;5.80;99.90
29731;DHT22;16639;51.488;0.152;2023-03-03T03:40:40;5.80;99.90
29731;DHT22;16639;51.488;0.152;2023-03-03T03:43:08;5.80;99.90
29731;DHT22;16639;51.488;0.152;2023-03-03T03:45:35;5.80;99.90
29731;DHT22;16639;51.488;0.152;2023-03-03T03:48:03;5.80;99.90
29731;DHT22;16639;51.488;0.152;2023-03-03T03:50:30;5.80;99.90
29731;DHT22;16639;51.488;0.152;2023-03-03T03:52:58;5.80;99.90
29731;DHT22;16639;51.488;0.152;2023-03-03T03:55:25;5.80;99.90
29731;DHT22;16639;51.488;0.152;2023-03-03T03:57:53;5.80;99.90
29731;DHT22;16639;51.488;0.152;2023-03-03T04:00:21;5.80;99.90
29731;DHT22;16639;51.488;0.152;2023-03-03T04:02:49;5.70;99.90
29731;DHT22;16639;51.488;0.152;2023-03-03T04:05:17;6.20;99.90
29731;DHT22;16639;51.488;0.152;2023-03-03T04:07:44;5.70;99.90
29731;DHT22;16639;51.488;0.152;2023-03-03T04:10:12;6.00;99.90
29731;DHT22;16639;51.488;0.152;2023-03-03T04:12:39;5.60;99.90
29731;DHT22;16639;51.488;0.152;2023-03-03T04:15:09;5.60;99.90
29731;DHT22;16639;51.488;0.152;2023-03-03T04:17:36;5.60;99.90
29731;DHT22;16639;51.488;0.152;2023-03-03T04:20:04;5.60;99.90
29731;DHT22;16639;51.488;0.152;2023-03-03T04:22:32;5.70;99.90
29731;DHT22;16639;51.488;0.152;2023-03-03T04:25:00;5.70;99.90
29731;DHT22;16639;51.488;0.152;2023-03-03T04:27:32;5.70;99.90
29731;DHT22;16639;51.488;0.152;2023-03-03T04:29:59;5.70;99.90
29731;DHT22;16639;51.488;0.152;2023-03-03T04:32:27;5.70;99.90
29731;DHT22;16639;51.488;0.152;2023-03-03T04:34:54;5.70;99.90
29731;DHT22;16639;51.488;0.152;2023-03-03T04:37:34;5.50;99.90
29731;DHT22;16639;51.488;0.152;2023-03-03T04:40:04;5.60;99.90
29731;DHT22;16639;51.488;0.152;2023-03-03T04:42:32;5.70;99.90
29731;DHT22;16639;51.488;0.152;2023-03-03T04:44:59;5.70;99.90
29731;DHT22;16639;51.488;0.152;2023-03-03T04:47:26;5.60;99.90
29731;DHT22;16639;51.488;0.152;2023-03-03T04:49:54;5.60;99.90
29731;DHT22;16639;51.488;0.152;2023-03-03T04:52:21;5.80;99.90
29731;DHT22;16639;51.488;0.152;2023-03-03T04:54:48;5.60;99.90
29731;DHT22;16639;51.488;0.152;2023-03-03T04:57:16;5.70;99.90
29731;DHT22;16639;51.488;0.152;2023-03-03T04:59:43;5.50;99.90
29731;DHT22;16639;51.488;0.152;2023-03-03T05:02:10;5.60;99.90
29731;DHT22;16639;51.488;0.152;2023-03-03T05:04:39;5.60;99.90
29731;DHT22;16639;51.488;0.152;2023-03-03T05:07:06;5.60;99.90
29731;DHT22;16639;51.488;0.152;2023-03-03T05:09:34;5.60;99.90
29731;DHT22;16639;51.488;0.152;2023-03-03T05:12:01;5.60;99.90
29731;DHT22;16639;51.488;0.152;2023-03-03T05:14:29;5.60;99.90
29731;DHT22;16639;51.488;0.152;2023-03-03T05:16:57;5.70;99.90
29731;DHT22;16639;51.488;0.152;2023-03-03T05:19:24;5.60;99.90
29731;DHT22;16639;51.488;0.152;2023-03-03T05:21:52;5.60;99.90
29731;DHT22;16639;51.488;0.152;2023-03-03T05:24:20;5.60;99.90
29731;DHT22;16639;51.488;0.152;2023-03-03T05:26:48;5.60;99.90
29731;DHT22;16639;51.488;0.152;2023-03-03T05:29:15;5.50;99.90
29731;DHT22;16639;51.488;0.152;2023-03-03T05:31:43;5.50;99.90
29731;DHT22;16639;51.488;0.152;2023-03-03T05:34:11;5.50;99.90
29731;DHT22;16639;51.488;0.152;2023-03-03T05:36:39;6.70;99.90
29731;DHT22;16639;51.488;0.152;2023-03-03T05:39:06;5.50;99.90
29731;DHT22;16639;51.488;0.152;2023-03-03T05:41:33;5.60;99.90
29731;DHT22;16639;51.488;0.152;2023-03-03T05:44:03;5.60;99.90
29731;DHT22;16639;51.488;0.152;2023-03-03T05:46:30;5.60;99.90
29731;DHT22;16639;51.488;0.152;2023-03-03T05:48:57;5.50;99.90
29731;DHT22;16639;51.488;0.152;2023-03-03T05:51:25;5.80;99.90
29731;DHT22;16639;51.488;0.152;2023-03-03T05:53:52;5.50;99.90
29731;DHT22;16639;51.488;0.152;2023-03-03T05:56:22;5.50;99.90
29731;DHT22;16639;51.488;0.152;2023-03-03T05:58:49;5.50;99.90
29731;DHT22;16639;51.488;0.152;2023-03-03T06:01:17;5.60;99.90
29731;DHT22;16639;51.488;0.152;2023-03-03T06:03:44;5.20;99.90
29731;DHT22;16639;51.488;0.152;2023-03-03T06:06:11;5.60;99.90
29731;DHT22;16639;51.488;0.152;2023-03-03T06:08:40;5.50;99.90
29731;DHT22;16639;51.488;0.152;2023-03-03T06:11:07;5.50;99.90
29731;DHT22;16639;51.488;0.152;2023-03-03T06:13:34;5.50;99.90
29731;DHT22;16639;51.488;0.152;2023-03-03T06:16:02;5.40;99.90
29731;DHT22;16639;51.488;0.152;2023-03-03T06:18:29;5.40;99.90
29731;DHT22;16639;51.488;0.152;2023-03-03T06:20:56;5.40;99.90
29731;DHT22;16639;51.488;0.152;2023-03-03T06:23:24;5.50;99.90
29731;DHT22;16639;51.488;0.152;2023-03-03T06:25:51;6.00;99.90
29731;DHT22;16639;51.488;0.152;2023-03-03T06:28:19;5.50;99.90
29731;DHT22;16639;51.488;0.152;2023-03-03T06:30:46;5.60;99.90
29731;DHT22;16639;51.488;0.152;2023-03-03T06:33:13;5.60;99.90
29731;DHT22;16639;51.488;0.152;2023-03-03T06:35:41;5.60;99.90
29731;DHT22;16639;51.488;0.152;2023-03-03T06:38:08;5.60;99.90
29731;DHT22;16639;51.488;0.152;2023-03-03T06:40:35;6.70;99.90
29731;DHT22;16639;51.488;0.152;2023-03-03T06:43:03;5.60;99.90
29731;DHT22;16639;51.488;0.152;2023-03-03T06:45:30;5.60;99.90
29731;DHT22;16639;51.488;0.152;2023-03-03T06:47:58;5.70;99.90
29731;DHT22;16639;51.488;0.152;2023-03-03T06:50:25;5.60;99.90
29731;DHT22;16639;51.488;0.152;2023-03-03T06:53:21;5.80;99.90
29731;DHT22;16639;51.488;0.152;2023-03-03T06:55:49;5.60;99.90
29731;DHT22;16639;51.488;0.152;2023-03-03T06:58:19;5.60;99.90
29731;DHT22;16639;51.488;0.152;2023-03-03T07:01:12;5.60;99.90
29731;DHT22;16639;51.488;0.152;2023-03-03T07:03:41;5.70;99.90
29731;DHT22;16639;51.488;0.152;2023-03-03T07:06:27;5.20;99.90
29731;DHT22;16639;51.488;0.152;2023-03-03T07:08:56;5.70;99.90
29731;DHT22;16639;51.488;0.152;2023-03-03T07:12:00;5.70;99.90
29731;DHT22;16639;51.488;0.152;2023-03-03T07:14:28;5.70;99.90
29731;DHT22;16639;51.488;0.152;2023-03-03T07:16:59;6.20;99.90
29731;DHT22;16639;51.488;0.152;2023-03-03T07:19:34;5.70;99.90
29731;DHT22;16639;51.488;0.152;2023-03-03T07:22:15;5.70;99.90
29731;DHT22;16639;51.488;0.152;2023-03-03T07:24:46;6.70;99.90
29731;DHT22;16639;51.488;0.152;2023-03-03T07:27:26;5.70;99.90
29731;DHT22;16639;51.488;0.152;2023-03-03T07:30:11;5.70;99.90
29731;DHT22;16639;51.488;0.152;2023-03-03T07:32:45;5.60;99.90
29731;DHT22;16639;51.488;0.152;2023-03-03T07:38:00;5.60;99.90
29731;DHT22;16639;51.488;0.152;2023-03-03T07:43:28;5.60;99.90
29731;DHT22;16639;51.488;0.152;2023-03-03T07:46:01;5.60;99.90
29731;DHT22;16639;51.488;0.152;2023-03-03T07:48:34;5.60;99.90
29731;DHT22;16639;51.488;0.152;2023-03-03T07:51:10;5.60;99.90
29731;DHT22;16639;51.488;0.152;2023-03-03T07:53:38;5.60;99.90
29731;DHT22;16639;51.488;0.152;2023-03-03T07:56:14;5.60;99.90
29731;DHT22;16639;51.488;0.152;2023-03-03T07:58:43;5.70;99.90
29731;DHT22;16639;51.488;0.152;2023-03-03T08:01:36;5.80;99.90
29731;DHT22;16639;51.488;0.152;2023-03-03T08:04:16;5.80;99.90
29731;DHT22;16639;51.488;0.152;2023-03-03T08:06:49;5.70;99.90
29731;DHT22;16639;51.488;0.152;2023-03-03T08:14:39;5.90;99.90
29731;DHT22;16639;51.488;0.152;2023-03-03T08:17:16;5.90;99.90
29731;DHT22;16639;51.488;0.152;2023-03-03T08:19:45;5.60;99.90
29731;DHT22;16639;51.488;0.152;2023-03-03T08:22:34;6.00;99.90
29731;DHT22;16639;51.488;0.152;2023-03-03T08:25:02;5.70;99.90
29731;DHT22;16639;51.488;0.152;2023-03-03T08:27:29;6.10;99.90
29731;DHT22;16639;51.488;0.152;2023-03-03T08:29:57;6.20;99.90
29731;DHT22;16639;51.488;0.152;2023-03-03T08:32:24;6.30;99.90
29731;DHT22;16639;51.488;0.152;2023-03-03T08:34:51;6.30;99.90
29731;DHT22;16639;51.488;0.152;2023-03-03T08:37:19;6.40;99.90
29731;DHT22;16639;51.488;0.152;2023-03-03T08:39:46;6.40;99.90
29731;DHT22;16639;51.488;0.152;2023-03-03T08:42:13;6.40;99.90
29731;DHT22;16639;51.488;0.152;2023-03-03T08:44:42;6.50;99.90
29731;DHT22;16639;51.488;0.152;2023-03-03T08:47:09;6.50;99.90
29731;DHT22;16639;51.488;0.152;2023-03-03T08:49:37;6.50;99.90
29731;DHT22;16639;51.488;0.152;2023-03-03T08:52:04;6.50;99.90
29731;DHT22;16639;51.488;0.152;2023-03-03T08:54:32;6.60;99.90
29731;DHT22;16639;51.488;0.152;2023-03-03T08:56:59;7.60;99.90
29731;DHT22;16639;51.488;0.152;2023-03-03T08:59:26;6.70;99.90
29731;DHT22;16639;51.488;0.152;2023-03-03T09:01:54;7.30;99.90
29731;DHT22;16639;51.488;0.152;2023-03-03T09:04:21;6.80;99.90
29731;DHT22;16639;51.488;0.152;2023-03-03T09:06:48;6.80;99.90
29731;DHT22;16639;51.488;0.152;2023-03-03T09:09:16;6.80;99.90
29731;DHT22;16639;51.488;0.152;2023-03-03T09:11:43;6.80;99.90
29731;DHT22;16639;51.488;0.152;2023-03-03T09:16:43;6.80;99.90
29731;DHT22;16639;51.488;0.152;2023-03-03T09:19:25;6.70;99.90
29731;DHT22;16639;51.488;0.152;2023-03-03T09:21:55;7.10;99.90
29731;DHT22;16639;51.488;0.152;2023-03-03T09:24:30;6.70;99.90
29731;DHT22;16639;51.488;0.152;2023-03-03T09:26:59;6.50;99.90
29731;DHT22;16639;51.488;0.152;2023-03-03T09:29:28;6.70;99.90
29731;DHT22;16639;51.488;0.152;2023-03-03T09:32:01;6.70;99.90
29731;DHT22;16639;51.488;0.152;2023-03-03T09:34:40;7.40;99.90
29731;DHT22;16639;51.488;0.152;2023-03-03T09:39:41;6.70;99.90
29731;DHT22;16639;51.488;0.152;2023-03-03T09:45:25;6.70;99.90
29731;DHT22;16639;51.488;0.152;2023-03-03T09:48:24;6.70;99.90
29731;DHT22;16639;51.488;0.152;2023-03-03T09:56:36;6.90;99.90
29731;DHT22;16639;51.488;0.152;2023-03-03T10:04:39;6.90;99.90
29731;DHT22;16639;51.488;0.152;2023-03-03T10:18:29;6.70;99.90
29731;DHT22;16639;51.488;0.152;2023-03-03T10:21:15;6.70;99.90
29731;DHT22;16639;51.488;0.152;2023-03-03T10:26:50;6.80;99.90
29731;DHT22;16639;51.488;0.152;2023-03-03T10:30:10;6.70;99.90
29731;DHT22;16639;51.488;0.152;2023-03-03T10:38:41;7.00;99.90
29731;DHT22;16639;51.488;0.152;2023-03-03T10:41:21;7.10;99.90
29731;DHT22;16639;51.488;0.152;2023-03-03T10:47:20;7.20;99.90
29731;DHT22;16639;51.488;0.152;2023-03-03T10:57:59;7.30;99.90
29731;DHT22;16639;51.488;0.152;2023-03-03T11:05:47;7.30;99.90
29731;DHT22;16639;51.488;0.152;2023-03-03T11:08:33;7.40;99.90
29731;DHT22;16639;51.488;0.152;2023-03-03T11:24:55;7.40;99.90
29731;DHT22;16639;51.488;0.152;2023-03-03T11:33:10;7.40;99.90
29731;DHT22;16639;51.488;0.152;2023-03-03T11:38:58;7.40;99.90
29731;DHT22;16639;51.488;0.152;2023-03-03T11:41:34;7.40;99.90
29731;DHT22;16639;51.488;0.152;2023-03-03T11:49:36;7.40;99.90
29731;DHT22;16639;51.488;0.152;2023-03-03T11:58:21;7.20;99.90
29731;DHT22;16639;51.488;0.152;2023-03-03T12:01:20;7.30;99.90
29731;DHT22;16639;51.488;0.152;2023-03-03T12:18:16;7.30;99.90
29731;DHT22;16639;51.488;0.152;2023-03-03T12:28:58;7.50;99.90
29731;DHT22;16639;51.488;0.152;2023-03-03T12:31:50;7.60;99.90
29731;DHT22;16639;51.488;0.152;2023-03-03T12:34:46;7.70;99.90
29731;DHT22;16639;51.488;0.152;2023-03-03T12:40:37;7.80;99.90
29731;DHT22;16639;51.488;0.152;2023-03-03T12:43:19;7.90;99.90
29731;DHT22;16639;51.488;0.152;2023-03-03T12:48:27;8.00;99.90
29731;DHT22;16639;51.488;0.152;2023-03-03T12:51:30;8.00;99.90
29731;DHT22;16639;51.488;0.152;2023-03-03T13:00:36;7.80;99.90
29731;DHT22;16639;51.488;0.152;2023-03-03T13:03:13;7.80;99.90
29731;DHT22;16639;51.488;0.152;2023-03-03T13:15:17;7.80;99.90
29731;DHT22;16639;51.488;0.152;2023-03-03T13:21:33;7.80;99.90
29731;DHT22;16639;51.488;0.152;2023-03-03T13:27:11;7.80;99.90
29731;DHT22;16639;51.488;0.152;2023-03-03T13:29:41;7.90;99.90
29731;DHT22;16639;51.488;0.152;2023-03-03T13:37:41;7.80;99.90
29731;DHT22;16639;51.488;0.152;2023-03-03T13:40:21;7.80;99.90
29731;DHT22;16639;51.488;0.152;2023-03-03T13:42:56;7.70;99.90
29731;DHT22;16639;51.488;0.152;2023-03-03T13:52:08;7.70;99.90
29731;DHT22;16639;51.488;0.152;2023-03-03T13:54:56;7.70;99.90
29731;DHT22;16639;51.488;0.152;2023-03-03T14:05:44;7.80;99.90
29731;DHT22;16639;51.488;0.152;2023-03-03T14:14:30;7.90;99.90
29731;DHT22;16639;51.488;0.152;2023-03-03T14:17:03;7.80;99.90
29731;DHT22;16639;51.488;0.152;2023-03-03T14:19:46;7.80;99.90
29731;DHT22;16639;51.488;0.152;2023-03-03T14:25:12;7.70;99.90
29731;DHT22;16639;51.488;0.152;2023-03-03T14:27:58;7.70;99.90
29731;DHT22;16639;51.488;0.152;2023-03-03T14:35:47;7.80;99.90
29731;DHT22;16639;51.488;0.152;2023-03-03T14:38:18;7.80;99.90
29731;DHT22;16639;51.488;0.152;2023-03-03T14:40:46;7.80;99.90
29731;DHT22;16639;51.488;0.152;2023-03-03T14:43:33;7.80;99.90
29731;DHT22;16639;51.488;0.152;2023-03-03T14:49:01;7.70;99.90
29731;DHT22;16639;51.488;0.152;2023-03-03T14:51:37;7.70;99.90
29731;DHT22;16639;51.488;0.152;2023-03-03T14:54:07;7.60;99.90
29731;DHT22;16639;51.488;0.152;2023-03-03T14:56:36;7.50;99.90
29731;DHT22;16639;51.488;0.152;2023-03-03T14:59:21;7.50;99.90
29731;DHT22;16639;51.488;0.152;2023-03-03T15:05:59;7.50;99.90
29731;DHT22;16639;51.488;0.152;2023-03-03T15:12:41;7.50;99.90
29731;DHT22;16639;51.488;0.152;2023-03-03T15:15:33;7.50;99.90
29731;DHT22;16639;51.488;0.152;2023-03-03T15:18:10;7.50;99.90
29731;DHT22;16639;51.488;0.152;2023-03-03T15:29:22;7.50;99.90
29731;DHT22;16639;51.488;0.152;2023-03-03T15:32:03;7.70;99.90
29731;DHT22;16639;51.488;0.152;2023-03-03T15:34:56;7.50;99.90
29731;DHT22;16639;51.488;0.152;2023-03-03T15:37:37;7.40;99.90
29731;DHT22;16639;51.488;0.152;2023-03-03T15:40:19;7.40;99.90
29731;DHT22;16639;51.488;0.152;2023-03-03T15:45:26;7.50;99.90
29731;DHT22;16639;51.488;0.152;2023-03-03T15:48:00;7.50;99.90
29731;DHT22;16639;51.488;0.152;2023-03-03T15:51:27;7.50;99.90
29731;DHT22;16639;51.488;0.152;2023-03-03T16:02:55;7.50;99.90
29731;DHT22;16639;51.488;0.152;2023-03-03T16:07:43;7.50;99.90
29731;DHT22;16639;51.488;0.152;2023-03-03T16:13:31;7.60;99.90
29731;DHT22;16639;51.488;0.152;2023-03-03T16:22:51;7.50;99.90
29731;DHT22;16639;51.488;0.152;2023-03-03T16:38:44;7.50;99.90
29731;DHT22;16639;51.488;0.152;2023-03-03T16:41:42;7.50;99.90
29731;DHT22;16639;51.488;0.152;2023-03-03T16:46:46;7.50;99.90
29731;DHT22;16639;51.488;0.152;2023-03-03T16:49:32;7.40;99.90
29731;DHT22;16639;51.488;0.152;2023-03-03T16:57:15;7.50;99.90
29731;DHT22;16639;51.488;0.152;2023-03-03T17:08:28;7.50;99.90
29731;DHT22;16639;51.488;0.152;2023-03-03T17:13:47;7.50;99.90
29731;DHT22;16639;51.488;0.152;2023-03-03T17:16:49;7.50;99.90
29731;DHT22;16639;51.488;0.152;2023-03-03T17:27:54;7.50;99.90
29731;DHT22;16639;51.488;0.152;2023-03-03T17:30:41;7.50;99.90
29731;DHT22;16639;51.488;0.152;2023-03-03T17:51:04;7.30;99.90
29731;DHT22;16639;51.488;0.152;2023-03-03T17:56:27;7.30;99.90
29731;DHT22;16639;51.488;0.152;2023-03-03T18:24:36;7.30;99.90
29731;DHT22;16639;51.488;0.152;2023-03-03T18:27:35;7.30;99.90
29731;DHT22;16639;51.488;0.152;2023-03-03T18:41:03;7.30;99.90
29731;DHT22;16639;51.488;0.152;2023-03-03T18:49:11;8.70;99.90
29731;DHT22;16639;51.488;0.152;2023-03-03T18:56:45;7.30;99.90
29731;DHT22;16639;51.488;0.152;2023-03-03T19:07:48;7.30;99.90
29731;DHT22;16639;51.488;0.152;2023-03-03T19:12:58;7.30;99.90
29731;DHT22;16639;51.488;0.152;2023-03-03T19:18:11;7.30;99.90
29731;DHT22;16639;51.488;0.152;2023-03-03T19:20:41;7.30;99.90
29731;DHT22;16639;51.488;0.152;2023-03-03T19:28:04;7.40;99.90
29731;DHT22;16639;51.488;0.152;2023-03-03T19:43:31;7.30;99.90
29731;DHT22;16639;51.488;0.152;2023-03-03T19:55:26;7.20;99.90
29731;DHT22;16639;51.488;0.152;2023-03-03T20:10:46;7.20;99.90
29731;DHT22;16639;51.488;0.152;2023-03-03T20:16:34;7.30;99.90
29731;DHT22;16639;51.488;0.152;2023-03-03T20:22:39;7.20;99.90
29731;DHT22;16639;51.488;0.152;2023-03-03T20:28:17;7.20;99.90
29731;DHT22;16639;51.488;0.152;2023-03-03T20:31:10;7.20;99.90
29731;DHT22;16639;51.488;0.152;2023-03-03T20:51:35;7.10;99.90
29731;DHT22;16639;51.488;0.152;2023-03-03T20:57:26;7.10;99.90
29731;DHT22;16639;51.488;0.152;2023-03-03T21:03:39;7.00;99.90
29731;DHT22;16639;51.488;0.152;2023-03-03T21:06:16;7.10;99.90
29731;DHT22;16639;51.488;0.152;2023-03-03T21:12:05;7.10;99.90
29731;DHT22;16639;51.488;0.152;2023-03-03T21:14:25;7.10;99.90
29731;DHT22;16639;51.488;0.152;2023-03-03T21:16:55;7.30;99.90
29731;DHT22;16639;51.488;0.152;2023-03-03T21:19:34;7.10;99.90
29731;DHT22;16639;51.488;0.152;2023-03-03T21:22:05;7.10;99.90
29731;DHT22;16639;51.488;0.152;2023-03-03T21:27:42;7.10;99.90
29731;DHT22;16639;51.488;0.152;2023-03-03T21:32:41;7.00;99.90
29731;DHT22;16639;51.488;0.152;2023-03-03T21:35:15;6.40;99.90
29731;DHT22;16639;51.488;0.152;2023-03-03T21:37:54;7.00;99.90
29731;DHT22;16639;51.488;0.152;2023-03-03T21:40:28;7.10;99.90
29731;DHT22;16639;51.488;0.152;2023-03-03T21:42:57;7.10;99.90
29731;DHT22;16639;51.488;0.152;2023-03-03T21:45:26;7.10;99.90
29731;DHT22;16639;51.488;0.152;2023-03-03T21:47:53;7.10;99.90
29731;DHT22;16639;51.488;0.152;2023-03-03T21:50:21;7.10;99.90
29731;DHT22;16639;51.488;0.152;2023-03-03T21:52:48;7.10;99.90
29731;DHT22;16639;51.488;0.152;2023-03-03T21:55:16;7.10;99.90
29731;DHT22;16639;51.488;0.152;2023-03-03T21:57:43;7.00;99.90
29731;DHT22;16639;51.488;0.152;2023-03-03T22:00:11;7.00;99.90
29731;DHT22;16639;51.488;0.152;2023-03-03T22:02:38;7.00;99.90
29731;DHT22;16639;51.488;0.152;2023-03-03T22:05:06;7.00;99.90
29731;DHT22;16639;51.488;0.152;2023-03-03T22:07:34;7.00;99.90
29731;DHT22;16639;51.488;0.152;2023-03-03T22:10:01;7.00;99.90
29731;DHT22;16639;51.488;0.152;2023-03-03T22:12:29;6.90;99.90
29731;DHT22;16639;51.488;0.152;2023-03-03T22:14:56;6.90;99.90
29731;DHT22;16639;51.488;0.152;2023-03-03T22:17:23;6.90;99.90
29731;DHT22;16639;51.488;0.152;2023-03-03T22:19:52;6.90;99.90
29731;DHT22;16639;51.488;0.152;2023-03-03T22:22:21;6.90;99.90
29731;DHT22;16639;51.488;0.152;2023-03-03T22:24:49;7.00;99.90
29731;DHT22;16639;51.488;0.152;2023-03-03T22:27:16;7.00;99.90
29731;DHT22;16639;51.488;0.152;2023-03-03T22:29:44;7.10;99.90
29731;DHT22;16639;51.488;0.152;2023-03-03T22:32:11;7.00;99.90
29731;DHT22;16639;51.488;0.152;2023-03-03T22:34:39;7.00;99.90
29731;DHT22;16639;51.488;0.152;2023-03-03T22:37:06;7.10;99.90
29731;DHT22;16639;51.488;0.152;2023-03-03T22:39:34;7.00;99.90
29731;DHT22;16639;51.488;0.152;2023-03-03T22:42:01;7.10;99.90
29731;DHT22;16639;51.488;0.152;2023-03-03T22:44:29;7.00;99.90
29731;DHT22;16639;51.488;0.152;2023-03-03T22:46:56;7.00;99.90
29731;DHT22;16639;51.488;0.152;2023-03-03T22:49:23;7.00;99.90
29731;DHT22;16639;51.488;0.152;2023-03-03T22:51:51;7.00;99.90
29731;DHT22;16639;51.488;0.152;2023-03-03T22:54:19;6.90;99.90
29731;DHT22;16639;51.488;0.152;2023-03-03T22:56:46;7.00;99.90
29731;DHT22;16639;51.488;0.152;2023-03-03T22:59:14;6.90;99.90
29731;DHT22;16639;51.488;0.152;2023-03-03T23:01:42;6.90;99.90
29731;DHT22;16639;51.488;0.152;2023-03-03T23:04:09;6.90;99.90
29731;DHT22;16639;51.488;0.152;2023-03-03T23:06:37;7.00;99.90
29731;DHT22;16639;51.488;0.152;2023-03-03T23:09:04;7.00;99.90
29731;DHT22;16639;51.488;0.152;2023-03-03T23:11:33;6.90;99.90
29731;DHT22;16639;51.488;0.152;2023-03-03T23:14:01;6.90;99.90
29731;DHT22;16639;51.488;0.152;2023-03-03T23:16:28;6.90;99.90
29731;DHT22;16639;51.488;0.152;2023-03-03T23:19:00;6.90;99.90
29731;DHT22;16639;51.488;0.152;2023-03-03T23:22:05;7.00;99.90
29731;DHT22;16639;51.488;0.152;2023-03-03T23:24:36;6.90;99.90
29731;DHT22;16639;51.488;0.152;2023-03-03T23:27:30;6.90;99.90
29731;DHT22;16639;51.488;0.152;2023-03-03T23:30:32;6.90;99.90
29731;DHT22;16639;51.488;0.152;2023-03-03T23:33:07;6.80;99.90
29731;DHT22;16639;51.488;0.152;2023-03-03T23:35:43;6.80;99.90
29731;DHT22;16639;51.488;0.152;2023-03-03T23:38:19;6.80;99.90
29731;DHT22;16639;51.488;0.152;2023-03-03T23:41:04;6.90;99.90
29731;DHT22;16639;51.488;0.152;2023-03-03T23:43:43;6.70;99.90
29731;DHT22;16639;51.488;0.152;2023-03-03T23:46:22;6.70;99.90
29731;DHT22;16639;51.488;0.152;2023-03-03T23:49:06;6.70;99.90